createdAt,value
2018-11-23T00:02:11.079Z,17.10
2018-11-23T00:04:38.847Z,16.80
2018-11-23T00:07:06.322Z,17.70
2018-11-23T00:09:33.787Z,17.20
2018-11-23T00:12:01.307Z,17.20
2018-11-23T00:14:28.987Z,17.60
2018-11-23T00:16:56.435Z,17.80
2018-11-23T00:19:23.896Z,17.20
2018-11-23T00:21:51.418Z,16.90
2018-11-23T00:24:18.899Z,16.80
2018-11-23T00:26:46.407Z,16.50
2018-11-23T00:29:16.151Z,17.20
2018-11-23T00:31:43.733Z,18.30
2018-11-23T00:34:11.216Z,18.40
2018-11-23T00:36:38.670Z,17.80
2018-11-23T00:39:06.479Z,18.50
2018-11-23T00:41:34.027Z,17.90
2018-11-23T00:44:01.571Z,20.20
2018-11-23T00:46:29.339Z,19.20
2018-11-23T00:48:56.875Z,18.60
2018-11-23T00:51:24.714Z,18.90
2018-11-23T00:53:52.319Z,19.00
2018-11-23T00:56:19.759Z,18.60
2018-11-23T00:58:47.295Z,18.50
2018-11-23T01:01:14.796Z,18.30
2018-11-23T01:03:42.297Z,17.80
2018-11-23T01:06:09.791Z,17.40
2018-11-23T01:08:37.348Z,18.10
2018-11-23T01:11:05.433Z,17.30
2018-11-23T01:13:32.955Z,18.00
2018-11-23T01:16:00.681Z,17.80
2018-11-23T01:18:28.295Z,17.60
2018-11-23T01:20:55.866Z,18.70
2018-11-23T01:23:23.742Z,18.60
2018-11-23T01:25:51.270Z,18.40
2018-11-23T01:28:18.795Z,17.90
2018-11-23T01:30:46.581Z,17.90
2018-11-23T01:33:14.095Z,17.90
2018-11-23T01:35:41.721Z,18.40
2018-11-23T01:38:09.267Z,17.60
2018-11-23T01:40:36.819Z,19.20
2018-11-23T01:43:04.436Z,18.60
2018-11-23T01:45:31.971Z,18.40
2018-11-23T01:47:59.527Z,18.80
2018-11-23T01:50:28.447Z,18.20
2018-11-23T01:52:56.490Z,18.20
2018-11-23T01:55:24.722Z,17.80
2018-11-23T01:57:52.535Z,18.50
2018-11-23T02:00:21.350Z,18.60
2018-11-23T02:02:49.528Z,19.10
2018-11-23T02:05:17.105Z,19.90
2018-11-23T02:07:44.740Z,19.80
2018-11-23T02:10:13.226Z,19.20
2018-11-23T02:12:40.883Z,18.70
2018-11-23T02:15:12.937Z,18.00
2018-11-23T02:17:40.495Z,18.20
2018-11-23T02:20:10.203Z,18.80
2018-11-23T02:22:37.706Z,18.80
2018-11-23T02:25:05.535Z,18.70
2018-11-23T02:27:32.995Z,18.20
2018-11-23T02:30:00.608Z,18.60
2018-11-23T02:32:28.447Z,18.30
2018-11-23T02:34:55.932Z,19.80
2018-11-23T02:37:23.421Z,20.10
2018-11-23T02:39:51.007Z,19.50
2018-11-23T02:42:18.463Z,19.50
2018-11-23T02:44:45.967Z,20.10
2018-11-23T02:47:13.636Z,19.40
2018-11-23T02:49:41.320Z,19.10
2018-11-23T02:52:08.823Z,18.60
2018-11-23T02:54:36.288Z,19.70
2018-11-23T02:57:04.534Z,20.50
2018-11-23T02:59:32.012Z,21.20
2018-11-23T03:01:59.682Z,20.00
2018-11-23T03:04:32.263Z,19.20
2018-11-23T03:07:00.516Z,18.20
2018-11-23T03:09:27.992Z,18.60
2018-11-23T03:11:55.456Z,19.30
2018-11-23T03:14:22.898Z,19.10
2018-11-23T03:16:50.354Z,20.60
2018-11-23T03:19:17.831Z,19.50
2018-11-23T03:21:45.653Z,19.40
2018-11-23T03:24:13.124Z,19.30
2018-11-23T03:26:40.651Z,19.20
2018-11-23T03:29:08.112Z,19.00
2018-11-23T03:31:35.575Z,19.30
2018-11-23T03:34:03.126Z,18.90
2018-11-23T03:36:30.685Z,19.10
2018-11-23T03:38:58.212Z,21.00
2018-11-23T03:41:25.807Z,20.80
2018-11-23T03:43:53.308Z,20.30
2018-11-23T03:46:20.844Z,20.40
2018-11-23T03:48:48.575Z,20.00
2018-11-23T03:51:16.127Z,21.00
2018-11-23T03:53:43.810Z,20.20
2018-11-23T03:56:11.560Z,19.60
2018-11-23T03:58:39.117Z,20.90
2018-11-23T04:01:06.755Z,20.60
2018-11-23T04:03:34.305Z,20.10
2018-11-23T04:06:01.934Z,20.80
2018-11-23T04:08:29.463Z,19.90
2018-11-23T04:10:57.010Z,20.30
2018-11-23T04:13:24.577Z,19.90
2018-11-23T04:15:52.143Z,19.50
2018-11-23T04:18:19.700Z,19.60
2018-11-23T04:20:53.344Z,19.60
2018-11-23T04:23:20.868Z,19.90
2018-11-23T04:25:48.408Z,20.30
2018-11-23T04:28:15.987Z,19.50
2018-11-23T04:30:43.555Z,20.70
2018-11-23T04:33:11.096Z,21.50
2018-11-23T04:35:38.641Z,20.60
2018-11-23T04:38:06.352Z,20.30
2018-11-23T04:40:33.915Z,20.00
2018-11-23T04:43:01.532Z,20.50
2018-11-23T04:45:29.098Z,20.90
2018-11-23T04:47:56.989Z,21.30
2018-11-23T04:50:24.531Z,20.80
2018-11-23T04:52:52.082Z,21.50
2018-11-23T04:55:19.643Z,21.10
2018-11-23T04:57:47.325Z,22.60
2018-11-23T05:00:16.267Z,21.70
2018-11-23T05:02:45.077Z,22.00
2018-11-23T05:05:13.099Z,21.80
2018-11-23T05:07:41.791Z,22.50
2018-11-23T05:10:10.979Z,25.50
2018-11-23T05:12:38.755Z,23.90
2018-11-23T05:15:07.543Z,24.00
2018-11-23T05:17:35.145Z,23.60
2018-11-23T05:20:02.999Z,24.90
2018-11-23T05:22:30.581Z,23.80
2018-11-23T05:24:58.198Z,23.90
2018-11-23T05:27:25.769Z,23.50
2018-11-23T05:29:53.473Z,23.40
2018-11-23T05:32:21.012Z,23.10
2018-11-23T05:34:48.953Z,24.50
2018-11-23T05:37:16.482Z,24.70
2018-11-23T05:39:44.158Z,25.50
2018-11-23T05:42:11.675Z,24.70
2018-11-23T05:44:39.221Z,25.80
2018-11-23T05:47:06.992Z,24.80
2018-11-23T05:49:34.508Z,24.90
2018-11-23T05:52:02.168Z,24.00
2018-11-23T05:54:30.086Z,23.60
2018-11-23T05:56:58.091Z,23.30
2018-11-23T05:59:25.598Z,22.80
2018-11-23T06:01:53.426Z,24.40
2018-11-23T06:04:20.955Z,24.00
2018-11-23T06:06:48.493Z,23.20
2018-11-23T06:09:16.089Z,23.50
2018-11-23T06:11:43.639Z,23.10
2018-11-23T06:14:11.176Z,23.50
2018-11-23T06:16:38.707Z,23.50
2018-11-23T06:19:06.253Z,23.10
2018-11-23T06:21:33.807Z,23.00
2018-11-23T06:24:01.393Z,22.20
2018-11-23T06:26:29.811Z,23.50
2018-11-23T06:28:57.363Z,23.20
2018-11-23T06:31:24.886Z,22.00
2018-11-23T06:33:52.445Z,24.60
2018-11-23T06:36:19.987Z,25.20
2018-11-23T06:38:47.808Z,26.60
2018-11-23T06:41:15.364Z,24.60
2018-11-23T06:43:42.996Z,24.50
2018-11-23T06:46:11.498Z,24.90
2018-11-23T06:48:39.179Z,24.00
2018-11-23T06:51:07.041Z,24.80
2018-11-23T06:53:34.650Z,24.00
2018-11-23T06:56:02.955Z,24.50
2018-11-23T06:58:30.585Z,25.10
2018-11-23T07:00:58.423Z,23.50
2018-11-23T07:03:26.332Z,23.30
2018-11-23T07:05:54.285Z,24.30
2018-11-23T07:08:22.374Z,24.00
2018-11-23T07:10:49.920Z,24.40
2018-11-23T07:13:17.489Z,26.80
2018-11-23T07:15:45.099Z,24.40
2018-11-23T07:18:12.692Z,24.50
2018-11-23T07:20:40.514Z,24.50
2018-11-23T07:23:09.920Z,24.70
2018-11-23T07:25:38.324Z,23.80
2018-11-23T07:28:06.095Z,24.50
2018-11-23T07:30:33.497Z,24.50
2018-11-23T07:33:01.295Z,24.30
2018-11-23T07:35:28.728Z,24.40
2018-11-23T07:37:56.279Z,24.50
2018-11-23T07:40:44.612Z,24.50
2018-11-23T07:43:12.067Z,24.50
2018-11-23T07:45:39.406Z,24.50
2018-11-23T07:48:07.300Z,24.50
2018-11-23T07:50:34.670Z,25.40
2018-11-23T07:53:02.064Z,25.30
2018-11-23T07:55:29.440Z,25.80
2018-11-23T07:57:56.863Z,25.00
2018-11-23T08:00:24.929Z,24.60
2018-11-23T08:02:52.352Z,24.60
2018-11-23T08:05:19.998Z,24.70
2018-11-23T08:07:49.680Z,24.70
2018-11-23T08:10:16.873Z,24.70
2018-11-23T08:12:48.617Z,24.90
2018-11-23T08:15:19.160Z,24.70
2018-11-23T08:17:46.504Z,25.70
2018-11-23T08:20:15.076Z,26.50
2018-11-23T08:22:44.324Z,26.70
2018-11-23T08:25:12.857Z,26.30
2018-11-23T08:27:40.901Z,26.10
2018-11-23T08:30:12.793Z,26.10
2018-11-23T08:32:40.313Z,27.50
2018-11-23T08:35:07.805Z,27.50
2018-11-23T08:37:38.420Z,27.70
2018-11-23T08:40:10.834Z,30.40
2018-11-23T08:42:38.679Z,32.10
2018-11-23T08:45:08.659Z,31.90
2018-11-23T08:47:39.519Z,40.50
2018-11-23T08:50:12.664Z,29.60
2018-11-23T08:52:40.167Z,21.20
2018-11-23T08:55:08.700Z,17.60
2018-11-23T08:57:43.075Z,15.70
2018-11-23T09:00:13.725Z,16.10
2018-11-23T09:02:41.704Z,12.60
2018-11-23T09:05:09.095Z,14.80
2018-11-23T09:07:36.455Z,18.10
2018-11-23T09:10:16.256Z,19.40
2018-11-23T09:12:45.159Z,21.20
2018-11-23T09:15:13.591Z,21.90
2018-11-23T09:17:47.883Z,23.20
2018-11-23T09:20:15.920Z,26.20
2018-11-23T09:22:43.300Z,28.70
2018-11-23T09:25:12.892Z,29.00
2018-11-23T09:27:41.757Z,28.80
2018-11-23T09:30:13.741Z,28.90
2018-11-23T09:32:41.219Z,29.10
2018-11-23T09:35:08.592Z,30.00
2018-11-23T09:37:36.407Z,29.60
2018-11-23T09:40:05.084Z,32.90
2018-11-23T09:42:35.396Z,35.40
2018-11-23T09:45:02.799Z,35.70
2018-11-23T09:47:30.115Z,37.30
2018-11-23T09:49:57.590Z,38.30
2018-11-23T09:52:24.900Z,38.50
2018-11-23T09:54:52.248Z,41.90
2018-11-23T09:57:25.413Z,42.20
2018-11-23T09:59:52.725Z,43.90
2018-11-23T10:02:20.091Z,45.20
2018-11-23T10:04:47.456Z,44.30
2018-11-23T10:07:14.811Z,45.50
2018-11-23T10:09:42.147Z,47.10
2018-11-23T10:12:13.194Z,46.40
2018-11-23T10:14:40.603Z,46.30
2018-11-23T10:17:07.959Z,45.40
2018-11-23T10:19:35.339Z,46.40
2018-11-23T10:22:02.738Z,48.80
2018-11-23T10:24:30.049Z,47.70
2018-11-23T10:27:00.076Z,47.60
2018-11-23T10:29:27.404Z,47.10
2018-11-23T10:31:54.734Z,47.20
2018-11-23T10:34:22.029Z,46.40
2018-11-23T10:36:49.347Z,47.70
2018-11-23T10:39:16.682Z,45.50
2018-11-23T10:41:48.358Z,46.40
2018-11-23T10:44:16.134Z,44.70
2018-11-23T10:46:43.474Z,45.70
2018-11-23T10:49:10.784Z,44.80
2018-11-23T10:51:38.119Z,44.80
2018-11-23T10:54:05.516Z,44.90
2018-11-23T10:56:35.082Z,45.40
2018-11-23T10:59:02.408Z,45.00
2018-11-23T11:01:35.408Z,45.10
2018-11-23T11:04:08.452Z,45.10
2018-11-23T11:06:45.558Z,45.20
2018-11-23T11:09:12.868Z,45.20
2018-11-23T11:11:40.847Z,43.10
2018-11-23T11:14:08.185Z,42.90
2018-11-23T11:16:35.912Z,42.20
2018-11-23T11:19:03.563Z,42.90
2018-11-23T11:21:33.554Z,43.00
2018-11-23T11:24:01.132Z,41.60
2018-11-23T11:26:28.572Z,42.00
2018-11-23T11:28:55.947Z,40.80
2018-11-23T11:31:23.271Z,40.00
2018-11-23T11:33:50.616Z,40.10
2018-11-23T11:36:20.424Z,40.60
2018-11-23T11:38:47.736Z,40.20
2018-11-23T11:41:15.182Z,38.90
2018-11-23T11:43:42.591Z,39.10
2018-11-23T11:46:10.368Z,38.90
2018-11-23T11:48:37.806Z,38.60
2018-11-23T11:51:09.427Z,38.90
2018-11-23T11:53:36.747Z,36.60
2018-11-23T11:56:04.384Z,36.70
2018-11-23T11:58:31.988Z,35.40
2018-11-23T12:00:59.348Z,34.80
2018-11-23T12:03:28.142Z,34.40
2018-11-23T12:05:56.633Z,34.10
2018-11-23T12:08:24.036Z,33.30
2018-11-23T12:10:51.392Z,33.40
2018-11-23T12:13:18.736Z,33.60
2018-11-23T12:15:46.168Z,32.40
2018-11-23T12:18:18.187Z,30.60
2018-11-23T12:20:45.660Z,30.80
2018-11-23T12:23:13.030Z,30.50
2018-11-23T12:25:40.431Z,30.10
2018-11-23T12:28:07.884Z,30.30
2018-11-23T12:30:35.255Z,29.60
2018-11-23T12:33:08.839Z,29.50
2018-11-23T12:35:36.218Z,28.90
2018-11-23T12:38:03.559Z,29.30
2018-11-23T12:40:30.888Z,28.70
2018-11-23T12:42:58.199Z,26.50
2018-11-23T12:45:28.648Z,26.10
2018-11-23T12:47:55.943Z,25.80
2018-11-23T12:50:23.645Z,25.80
2018-11-23T12:52:51.015Z,25.50
2018-11-23T12:55:18.782Z,25.80
2018-11-23T12:57:49.883Z,26.10
2018-11-23T13:00:20.902Z,25.10
2018-11-23T13:02:50.472Z,24.50
2018-11-23T13:05:18.230Z,22.00
2018-11-23T13:07:45.614Z,23.10
2018-11-23T13:10:15.920Z,23.80
2018-11-23T13:12:43.342Z,25.10
2018-11-23T13:15:10.649Z,23.70
2018-11-23T13:17:37.940Z,25.50
2018-11-23T13:20:08.727Z,25.10
2018-11-23T13:22:41.579Z,28.10
2018-11-23T13:25:10.697Z,31.00
2018-11-23T13:27:38.339Z,30.40
2018-11-23T13:30:09.552Z,26.20
2018-11-23T13:32:36.924Z,34.30
2018-11-23T13:35:10.064Z,36.90
2018-11-23T13:37:37.375Z,37.20
2018-11-23T13:40:06.975Z,28.80
2018-11-23T13:42:34.306Z,23.50
2018-11-23T13:45:01.705Z,26.50
2018-11-23T13:47:34.299Z,32.30
2018-11-23T13:50:01.772Z,24.90
2018-11-23T13:52:29.078Z,27.70
2018-11-23T13:54:56.462Z,29.20
2018-11-23T13:57:23.842Z,28.30
2018-11-23T13:59:51.769Z,26.30
2018-11-23T14:02:21.312Z,23.80
2018-11-23T14:04:48.631Z,23.40
2018-11-23T14:07:15.927Z,23.90
2018-11-23T14:09:43.260Z,22.50
2018-11-23T14:12:10.763Z,21.40
2018-11-23T14:14:38.092Z,21.90
2018-11-23T14:17:05.404Z,21.30
2018-11-23T14:19:34.532Z,20.60
2018-11-23T14:22:02.128Z,20.40
2018-11-23T14:24:30.388Z,15.70
2018-11-23T14:26:58.263Z,15.40
2018-11-23T14:29:25.558Z,15.90
2018-11-23T14:31:52.883Z,17.30
2018-11-23T14:34:22.951Z,16.80
2018-11-23T14:36:50.315Z,16.30
2018-11-23T14:39:17.685Z,16.10
2018-11-23T14:41:45.215Z,16.30
2018-11-23T14:44:12.543Z,16.50
2018-11-23T14:46:39.888Z,16.10
2018-11-23T14:49:11.127Z,17.00
2018-11-23T14:51:38.433Z,16.60
2018-11-23T14:54:05.728Z,17.10
2018-11-23T14:56:33.328Z,16.50
2018-11-23T14:59:05.260Z,16.40
2018-11-23T15:01:33.316Z,16.60
2018-11-23T15:04:00.852Z,16.30
2018-11-23T15:06:28.194Z,16.90
2018-11-23T15:08:55.483Z,15.90
2018-11-23T15:11:22.795Z,16.30
2018-11-23T15:13:50.165Z,16.70
2018-11-23T15:16:17.464Z,16.70
2018-11-23T15:18:44.885Z,16.60
2018-11-23T15:21:12.199Z,16.70
2018-11-23T15:23:39.703Z,16.60
2018-11-23T15:26:07.174Z,16.90
2018-11-23T15:28:34.495Z,16.50
2018-11-23T15:31:02.028Z,16.20
2018-11-23T15:33:29.340Z,17.00
2018-11-23T15:35:59.363Z,17.10
2018-11-23T15:38:26.749Z,17.60
2018-11-23T15:40:54.090Z,17.70
2018-11-23T15:43:21.398Z,17.90
2018-11-23T15:45:48.717Z,18.00
2018-11-23T15:48:16.035Z,18.10
2018-11-23T15:50:43.854Z,18.10
2018-11-23T15:53:12.534Z,17.30
2018-11-23T15:55:40.160Z,17.10
2018-11-23T15:58:09.133Z,16.40
2018-11-23T16:00:37.771Z,16.70
2018-11-23T16:03:06.628Z,16.40
2018-11-23T16:05:33.964Z,16.40
2018-11-23T16:08:02.799Z,16.00
2018-11-23T16:10:32.523Z,15.70
2018-11-23T16:13:01.077Z,15.70
2018-11-23T16:15:28.844Z,16.10
2018-11-23T16:17:56.771Z,15.40
2018-11-23T16:20:26.743Z,16.10
2018-11-23T16:22:55.331Z,16.50
2018-11-23T16:25:22.839Z,16.50
2018-11-23T16:27:51.681Z,16.70
2018-11-23T16:30:20.698Z,16.60
2018-11-23T16:32:49.394Z,17.00
2018-11-23T16:35:18.360Z,17.00
2018-11-23T16:37:46.110Z,17.10
2018-11-23T16:40:14.999Z,17.20
2018-11-23T16:42:42.563Z,17.40
2018-11-23T16:45:12.897Z,17.40
2018-11-23T16:47:40.494Z,17.00
2018-11-23T16:50:08.400Z,17.90
2018-11-23T16:52:35.904Z,17.60
2018-11-23T16:55:05.587Z,17.30
2018-11-23T16:57:33.127Z,16.50
2018-11-23T17:00:00.825Z,16.10
2018-11-23T17:02:28.550Z,16.50
2018-11-23T17:04:56.048Z,16.40
2018-11-23T17:07:23.589Z,16.30
2018-11-23T17:09:51.146Z,16.40
2018-11-23T17:12:18.614Z,16.10
2018-11-23T17:14:46.255Z,16.40
2018-11-23T17:17:14.459Z,16.30
2018-11-23T17:19:42.200Z,16.40
2018-11-23T17:22:09.692Z,16.20
2018-11-23T17:24:37.240Z,16.20
2018-11-23T17:27:05.092Z,16.00
2018-11-23T17:29:34.006Z,16.20
2018-11-23T17:32:00.383Z,16.00
2018-11-23T17:34:27.911Z,15.50
2018-11-23T17:36:55.895Z,15.80
2018-11-23T17:39:23.444Z,16.10
2018-11-23T17:41:50.962Z,16.70
2018-11-23T17:44:18.444Z,16.60
2018-11-23T17:46:47.514Z,16.40
2018-11-23T17:49:15.066Z,16.30
2018-11-23T17:51:42.595Z,16.50
2018-11-23T17:54:10.108Z,16.70
2018-11-23T17:56:37.611Z,16.70
2018-11-23T17:59:05.152Z,16.90
2018-11-23T18:01:32.655Z,16.60
2018-11-23T18:04:00.289Z,16.40
2018-11-23T18:06:27.856Z,16.10
2018-11-23T18:08:55.378Z,16.40
2018-11-23T18:11:22.925Z,16.50
2018-11-23T18:13:50.432Z,17.20
2018-11-23T18:16:17.924Z,17.00
2018-11-23T18:18:45.735Z,17.00
2018-11-23T18:21:13.279Z,17.30
2018-11-23T18:23:41.051Z,16.40
2018-11-23T18:26:08.592Z,17.30
2018-11-23T18:28:36.083Z,17.90
2018-11-23T18:31:03.576Z,17.50
2018-11-23T18:33:31.121Z,16.80
2018-11-23T18:35:58.621Z,17.10
2018-11-23T18:38:26.132Z,17.00
2018-11-23T18:40:53.610Z,18.00
2018-11-23T18:43:21.313Z,17.00
2018-11-23T18:45:48.839Z,17.60
2018-11-23T18:48:16.355Z,17.60
2018-11-23T18:50:44.029Z,17.30
2018-11-23T18:53:11.884Z,17.20
2018-11-23T18:55:39.400Z,17.20
2018-11-23T18:58:07.180Z,17.60
2018-11-23T19:00:34.683Z,17.50
2018-11-23T19:03:02.319Z,17.50
2018-11-23T19:05:29.989Z,17.50
2018-11-23T19:07:57.496Z,17.50
2018-11-23T19:10:25.009Z,17.70
2018-11-23T19:12:52.551Z,18.10
2018-11-23T19:15:25.195Z,18.00
2018-11-23T19:17:47.735Z,18.50
2018-11-23T19:20:16.526Z,19.90
2018-11-23T19:22:45.308Z,20.00
2018-11-23T19:25:13.790Z,19.90
2018-11-23T19:27:41.349Z,22.20
2018-11-23T19:30:13.034Z,21.90
2018-11-23T19:32:40.721Z,22.50
2018-11-23T19:35:08.440Z,23.00
2018-11-23T19:37:35.956Z,24.10
2018-11-23T19:40:06.562Z,24.10
2018-11-23T19:42:34.040Z,24.20
2018-11-23T19:45:01.788Z,24.10
2018-11-23T19:47:29.384Z,23.60
2018-11-23T19:49:56.919Z,23.80
2018-11-23T19:52:24.432Z,24.00
2018-11-23T19:54:51.960Z,23.30
2018-11-23T19:57:19.483Z,23.70
2018-11-23T19:59:47.071Z,24.10
2018-11-23T20:02:14.576Z,23.90
2018-11-23T20:04:42.640Z,24.00
2018-11-23T20:07:10.163Z,24.10
2018-11-23T20:09:40.004Z,23.90
2018-11-23T20:12:05.816Z,25.20
2018-11-23T20:14:33.323Z,25.20
2018-11-23T20:17:01.125Z,24.20
2018-11-23T20:19:28.743Z,24.40
2018-11-23T20:21:56.336Z,24.20
2018-11-23T20:24:23.948Z,24.30
2018-11-23T20:26:51.501Z,24.10
2018-11-23T20:29:19.118Z,24.20
2018-11-23T20:31:46.612Z,25.00
2018-11-23T20:34:14.180Z,24.70
2018-11-23T20:36:41.926Z,25.30
2018-11-23T20:39:09.563Z,24.70
2018-11-23T20:41:37.741Z,25.50
2018-11-23T20:44:05.966Z,24.50
2018-11-23T20:46:33.895Z,25.10
2018-11-23T20:49:01.555Z,25.30
2018-11-23T20:51:29.056Z,25.50
2018-11-23T20:53:56.692Z,24.50
2018-11-23T20:56:24.224Z,24.50
2018-11-23T20:58:51.741Z,26.10
2018-11-23T21:01:19.328Z,25.00
2018-11-23T21:03:46.944Z,24.00
2018-11-23T21:06:14.579Z,23.30
2018-11-23T21:08:42.238Z,23.50
2018-11-23T21:11:09.757Z,23.80
2018-11-23T21:13:37.747Z,23.70
2018-11-23T21:16:05.289Z,23.60
2018-11-23T21:18:32.869Z,23.30
2018-11-23T21:21:00.584Z,23.30
2018-11-23T21:23:28.131Z,23.20
2018-11-23T21:25:55.646Z,23.10
2018-11-23T21:28:23.167Z,23.00
2018-11-23T21:30:50.704Z,23.40
2018-11-23T21:33:18.267Z,23.20
2018-11-23T21:35:45.948Z,23.00
2018-11-23T21:38:13.505Z,23.80
2018-11-23T21:40:44.464Z,25.30
2018-11-23T21:43:08.939Z,24.70
2018-11-23T21:45:36.464Z,24.30
2018-11-23T21:48:04.114Z,24.10
2018-11-23T21:50:31.772Z,26.40
2018-11-23T21:52:59.278Z,25.90
2018-11-23T21:55:26.816Z,25.00
2018-11-23T21:57:55.255Z,26.00
2018-11-23T22:00:22.786Z,25.40
2018-11-23T22:02:50.288Z,25.10
2018-11-23T22:05:18.002Z,24.50
2018-11-23T22:07:45.659Z,24.00
2018-11-23T22:10:16.099Z,23.60
2018-11-23T22:12:43.670Z,26.20
2018-11-23T22:15:13.540Z,25.70
2018-11-23T22:17:41.632Z,24.90
2018-11-23T22:20:10.495Z,24.00
2018-11-23T22:22:38.072Z,24.30
2018-11-23T22:25:07.457Z,26.00
2018-11-23T22:27:34.971Z,25.20
2018-11-23T22:30:04.029Z,24.90
2018-11-23T22:32:31.588Z,24.60
2018-11-23T22:34:59.175Z,24.50
2018-11-23T22:37:26.674Z,24.10
2018-11-23T22:39:54.212Z,24.30
2018-11-23T22:42:21.736Z,25.10
2018-11-23T22:44:49.236Z,24.80
2018-11-23T22:47:16.739Z,24.50
2018-11-23T22:49:44.247Z,25.10
2018-11-23T22:52:11.801Z,24.60
2018-11-23T22:54:39.411Z,25.10
2018-11-23T22:57:11.562Z,24.80
2018-11-23T22:59:34.567Z,25.80
2018-11-23T23:02:02.205Z,25.90
2018-11-23T23:04:29.677Z,25.60
2018-11-23T23:06:57.328Z,25.90
2018-11-23T23:09:24.859Z,25.40
2018-11-23T23:11:52.376Z,25.50
2018-11-23T23:14:19.928Z,25.70
2018-11-23T23:16:47.392Z,25.40
2018-11-23T23:19:15.008Z,25.30
2018-11-23T23:21:42.777Z,25.30
2018-11-23T23:24:11.930Z,26.60
2018-11-23T23:26:37.943Z,25.80
2018-11-23T23:29:05.456Z,26.20
2018-11-23T23:31:33.071Z,25.90
2018-11-23T23:34:00.600Z,25.80
2018-11-23T23:36:28.145Z,25.60
2018-11-23T23:38:55.881Z,25.40
2018-11-23T23:41:23.487Z,26.20
2018-11-23T23:43:51.718Z,25.80
2018-11-23T23:46:20.026Z,25.80
2018-11-23T23:48:48.261Z,25.80
2018-11-23T23:51:16.591Z,26.30
2018-11-23T23:53:45.862Z,26.50
2018-11-23T23:56:14.143Z,25.80
2018-11-23T23:58:42.476Z,26.00
